Time;durP1;ratioP1;P1;durP2;ratioP2;P2;SDS_P1;SDS_P2;PMS_P1;PMS_P2;Temp;Humidity;BMP_temperature;BMP_pressure;BME280_temperature;BME280_humidity;BME280_pressure;Samples;Min_cycle;Max_cycle;Signal;HPM_P1;HPM_P2
2022/01/27 00:01:33;;;;;;;54.75;31.58;;;5.00;99.90;;;;;;5049893;28;20516;-60
2022/01/27 00:06:35;;;;;;;59.45;31.73;;;5.00;99.90;;;;;;5050593;28;20040;-60
2022/01/27 00:09:13;;;;;;;59.35;30.85;;;5.00;99.90;;;;;;5051255;28;20405;-59
2022/01/27 00:11:42;;;;;;;61.25;31.90;;;5.00;99.90;;;;;;5043995;28;20045;-58
2022/01/27 00:14:07;;;;;;;62.60;30.50;;;5.00;99.90;;;;;;5048911;28;20049;-60
2022/01/27 00:16:40;;;;;;;58.10;31.37;;;5.00;99.90;;;;;;5049800;28;20037;-58
2022/01/27 00:19:05;;;;;;;55.53;32.17;;;5.00;99.90;;;;;;5050959;28;20040;-60
2022/01/27 00:21:31;;;;;;;55.90;31.13;;;5.00;99.90;;;;;;5049364;28;20051;-60
2022/01/27 00:23:58;;;;;;;56.40;30.75;;;5.00;99.90;;;;;;5051195;28;20040;-59
2022/01/27 00:26:24;;;;;;;;;;;5.00;99.90;;;;;;5050821;28;20052;-60
2022/01/27 00:28:50;;;;;;;56.53;31.17;;;5.00;99.90;;;;;;5050797;28;19920;-58
2022/01/27 00:31:17;;;;;;;59.22;31.25;;;5.00;99.90;;;;;;5049906;28;20450;-59
2022/01/27 00:33:44;;;;;;;57.00;31.58;;;5.00;99.90;;;;;;5049490;28;20041;-61
2022/01/27 00:36:11;;;;;;;54.40;31.15;;;5.10;99.90;;;;;;5043662;28;20037;-60
2022/01/27 00:38:36;;;;;;;60.35;34.17;;;5.00;99.90;;;;;;5048018;28;20087;-60
2022/01/27 00:41:02;;;;;;;56.90;33.33;;;5.10;99.90;;;;;;5043473;28;20042;-60
2022/01/27 00:43:28;;;;;;;53.57;30.20;;;5.10;99.90;;;;;;5050068;28;20068;-60
2022/01/27 00:45:54;;;;;;;60.25;32.53;;;5.10;99.90;;;;;;5049319;28;20811;-60
2022/01/27 00:48:20;;;;;;;56.53;31.83;;;5.10;99.90;;;;;;5049926;28;20478;-61
2022/01/27 00:50:55;;;;;;;51.65;30.83;;;5.10;99.90;;;;;;5042709;28;20060;-60
2022/01/27 00:53:30;;;;;;;53.92;32.47;;;5.10;99.90;;;;;;5029288;28;20087;-60
2022/01/27 00:56:01;;;;;;;52.45;29.83;;;5.10;99.90;;;;;;5047266;28;20430;-61
2022/01/27 00:58:51;;;;;;;53.65;30.75;;;5.10;99.90;;;;;;5031855;28;20103;-60
2022/01/27 01:01:21;;;;;;;57.63;31.13;;;5.10;99.90;;;;;;5029258;28;20487;-59
2022/01/27 01:03:49;;;;;;;51.35;29.85;;;5.10;99.90;;;;;;5030166;28;20068;-59
2022/01/27 01:14:31;;;;;;;57.83;31.85;;;5.10;99.90;;;;;;5049716;28;20068;-62
2022/01/27 01:17:08;;;;;;;56.97;31.65;;;5.10;99.90;;;;;;5049383;28;20029;-59
2022/01/27 01:19:50;;;;;;;50.08;28.90;;;5.10;99.90;;;;;;5049545;28;20163;-60
2022/01/27 01:33:11;;;;;;;52.88;30.73;;;5.00;99.90;;;;;;5065071;28;20410;-62
2022/01/27 01:35:48;;;;;;;50.35;28.75;;;5.00;99.90;;;;;;5048774;28;20449;-61
2022/01/27 01:38:18;;;;;;;47.28;29.35;;;5.00;99.90;;;;;;5049192;28;20037;-61
2022/01/27 01:40:50;;;;;;;49.70;28.95;;;5.00;99.90;;;;;;5049477;28;20336;-59
2022/01/27 01:43:17;;;;;;;52.03;29.95;;;5.00;99.90;;;;;;5049056;28;20037;-60
2022/01/27 01:45:43;;;;;;;45.47;28.45;;;5.00;99.90;;;;;;5049126;28;20056;-61
2022/01/27 01:48:09;;;;;;;55.63;28.73;;;5.00;99.90;;;;;;5048692;28;20044;-59
2022/01/27 01:50:35;;;;;;;57.43;31.53;;;5.10;99.90;;;;;;5048815;28;20450;-61
2022/01/27 01:53:01;;;;;;;49.47;27.83;;;5.10;99.90;;;;;;5049190;28;20033;-59
2022/01/27 01:55:26;;;;;;;48.72;28.70;;;5.10;99.90;;;;;;5048751;28;20103;-59
2022/01/27 01:57:52;;;;;;;48.20;28.17;;;5.10;99.90;;;;;;5049047;28;20498;-60
2022/01/27 02:00:19;;;;;;;47.22;27.50;;;5.10;99.90;;;;;;5053230;28;20498;-61
2022/01/27 02:02:44;;;;;;;46.45;29.27;;;5.10;99.90;;;;;;5055067;28;20033;-60
2022/01/27 02:05:10;;;;;;;48.63;28.47;;;5.10;99.90;;;;;;5051480;28;20086;-60
2022/01/27 02:07:59;;;;;;;55.85;30.80;;;5.10;99.90;;;;;;5049183;28;20394;-58
2022/01/27 02:18:40;;;;;;;53.03;29.35;;;5.20;99.90;;;;;;5064431;28;20036;-56
2022/01/27 02:21:06;;;;;;;48.97;27.45;;;5.20;99.90;;;;;;5047682;28;20041;-61
2022/01/27 02:23:31;;;;;;;47.07;28.47;;;5.20;99.90;;;;;;5048814;28;20041;-60
2022/01/27 02:25:57;;;;;;;48.60;28.77;;;5.20;99.90;;;;;;5047982;28;20077;-60
2022/01/27 02:28:23;;;;;;;49.83;29.47;;;5.20;99.90;;;;;;5048588;28;20049;-62
2022/01/27 02:30:48;;;;;;;49.50;26.97;;;5.20;99.90;;;;;;5048225;28;20047;-60
2022/01/27 02:33:14;;;;;;;48.97;30.47;;;5.20;99.90;;;;;;5048523;28;20037;-60
2022/01/27 02:35:39;;;;;;;55.13;29.43;;;5.20;99.90;;;;;;5048148;28;20400;-59
2022/01/27 02:38:05;;;;;;;52.63;28.57;;;5.20;99.90;;;;;;5048009;28;20037;-59
2022/01/27 02:40:54;;;;;;;43.95;27.23;;;5.20;99.90;;;;;;5048135;28;20572;-60
2022/01/27 02:43:19;;;;;;;50.95;27.70;;;5.20;99.90;;;;;;5048040;28;20037;-60
2022/01/27 02:45:53;;;;;;;46.87;27.63;;;5.20;99.90;;;;;;5048020;28;20124;-61
2022/01/27 02:48:20;;;;;;;47.30;25.48;;;5.30;99.90;;;;;;5048584;28;20052;-59
2022/01/27 02:50:46;;;;;;;43.97;27.80;;;5.20;99.90;;;;;;5047989;28;20136;-61
2022/01/27 02:53:11;;;;;;;45.70;26.23;;;5.30;99.90;;;;;;5048367;28;20404;-60
2022/01/27 02:55:37;;;;;;;43.80;27.13;;;5.30;99.90;;;;;;5048283;28;20349;-60
2022/01/27 02:58:04;;;;;;;47.50;26.37;;;5.30;99.90;;;;;;5046473;28;20041;-61
2022/01/27 03:00:30;;;;;;;47.22;27.67;;;5.30;99.90;;;;;;5048135;28;20621;-61
2022/01/27 03:02:56;;;;;;;46.95;27.98;;;5.30;99.90;;;;;;5048123;28;20108;-60
2022/01/27 03:05:22;;;;;;;42.13;25.57;;;5.30;99.90;;;;;;5047625;28;20524;-60
2022/01/27 03:07:48;;;;;;;48.40;27.67;;;5.40;99.90;;;;;;5047763;28;20090;-59
2022/01/27 03:10:21;;;;;;;48.38;27.20;;;5.40;99.90;;;;;;5047265;28;20095;-61
2022/01/27 03:12:55;;;;;;;47.72;26.42;;;5.40;99.90;;;;;;5048408;28;20128;-61
2022/01/27 03:15:21;;;;;;;43.85;24.95;;;5.40;99.90;;;;;;5047748;28;20121;-60
2022/01/27 03:17:46;;;;;;;55.87;27.63;;;5.40;99.90;;;;;;5034735;28;20120;-61
2022/01/27 03:20:12;;;;;;;43.23;25.57;;;5.40;99.90;;;;;;5041430;28;20051;-61
2022/01/27 03:22:38;;;;;;;42.77;24.27;;;5.40;99.90;;;;;;5048155;28;20056;-60
2022/01/27 03:25:04;;;;;;;33.90;23.00;;;5.40;99.90;;;;;;5048557;28;20067;-60
2022/01/27 03:27:30;;;;;;;45.92;27.88;;;5.40;99.90;;;;;;5051944;28;20041;-61
2022/01/27 03:29:55;;;;;;;39.80;22.67;;;5.40;99.90;;;;;;5051892;28;20040;-60
2022/01/27 03:32:21;;;;;;;42.93;24.87;;;5.40;99.90;;;;;;5051406;28;20037;-61
2022/01/27 03:34:47;;;;;;;46.17;24.47;;;5.40;99.90;;;;;;5034724;28;20053;-60
2022/01/27 03:37:12;;;;;;;54.20;28.53;;;5.40;99.90;;;;;;5047666;28;20029;-61
2022/01/27 03:39:40;;;;;;;50.97;27.10;;;5.40;99.90;;;;;;5051346;28;20133;-61
2022/01/27 03:42:07;;;;;;;44.20;25.05;;;5.40;99.90;;;;;;5050315;28;20279;-62
2022/01/27 03:44:33;;;;;;;42.20;23.90;;;5.50;99.90;;;;;;5051924;28;20505;-62
2022/01/27 03:46:58;;;;;;;46.40;26.55;;;5.50;99.90;;;;;;5050944;28;20045;-61
2022/01/27 03:49:24;;;;;;;44.57;24.07;;;5.50;99.90;;;;;;5052073;28;20195;-62
2022/01/27 03:51:50;;;;;;;41.97;25.17;;;5.50;99.90;;;;;;5051391;28;20439;-62
2022/01/27 03:54:16;;;;;;;45.22;24.67;;;5.50;99.90;;;;;;5051409;28;20037;-61
2022/01/27 03:56:42;;;;;;;42.42;24.95;;;5.40;99.90;;;;;;5051148;28;20053;-59
2022/01/27 03:59:08;;;;;;;43.70;25.10;;;5.40;99.90;;;;;;5051137;28;20478;-62
2022/01/27 04:01:35;;;;;;;45.37;24.13;;;5.40;99.90;;;;;;5050695;28;20040;-62
2022/01/27 04:04:01;;;;;;;44.00;23.90;;;5.50;99.90;;;;;;5050902;28;20045;-62
2022/01/27 04:06:35;;;;;;;45.10;27.17;;;5.40;99.90;;;;;;5050910;28;20036;-60
2022/01/27 04:09:04;;;;;;;43.88;23.95;;;5.40;99.90;;;;;;5051027;28;20033;-59
2022/01/27 04:11:30;;;;;;;50.58;25.13;;;5.40;99.90;;;;;;5051173;28;20049;-60
2022/01/27 04:13:55;;;;;;;50.55;28.17;;;5.40;99.90;;;;;;5050520;28;20033;-60
2022/01/27 04:16:21;;;;;;;45.63;26.83;;;5.40;99.90;;;;;;5050655;28;20461;-60
2022/01/27 04:18:47;;;;;;;44.05;25.58;;;5.30;99.90;;;;;;5050329;28;20051;-61
2022/01/27 04:21:14;;;;;;;49.92;27.10;;;5.30;99.90;;;;;;5051050;28;20032;-59
2022/01/27 04:23:39;;;;;;;45.20;26.63;;;5.30;99.90;;;;;;5051060;28;20040;-61
2022/01/27 04:26:07;;;;;;;;;;;5.40;99.90;;;;;;5050421;28;20075;-59
2022/01/27 04:28:35;;;;;;;47.22;23.98;;;5.30;99.90;;;;;;5050734;28;19923;-60
2022/01/27 04:31:04;;;;;;;45.85;28.00;;;5.30;99.90;;;;;;5050275;28;20041;-61
2022/01/27 04:33:32;;;;;;;50.33;27.92;;;5.40;99.90;;;;;;5050708;28;20782;-61
2022/01/27 04:36:01;;;;;;;46.30;25.85;;;5.40;99.90;;;;;;5049506;28;20052;-59
2022/01/27 04:38:33;;;;;;;45.85;27.13;;;5.40;99.90;;;;;;5050646;28;20029;-61
2022/01/27 04:48:23;;;;;;;51.13;25.38;;;5.50;99.90;;;;;;5050399;28;20045;-60
2022/01/27 04:50:51;;;;;;;40.85;24.77;;;5.50;99.90;;;;;;5050155;28;20040;-61
2022/01/27 04:53:27;;;;;;;44.95;26.75;;;5.50;99.90;;;;;;5049247;28;20052;-61
2022/01/27 04:55:55;;;;;;;48.78;25.38;;;5.60;99.90;;;;;;5049396;28;20044;-57
2022/01/27 04:58:28;;;;;;;40.60;25.05;;;5.60;99.90;;;;;;5050230;28;20098;-60
2022/01/27 05:00:56;;;;;;;43.35;26.77;;;5.60;99.90;;;;;;5050136;28;20105;-60
2022/01/27 05:03:33;;;;;;;39.00;23.85;;;5.60;99.90;;;;;;5050213;28;20068;-59
2022/01/27 05:05:59;;;;;;;43.67;25.75;;;5.60;99.90;;;;;;5050026;28;20060;-61
2022/01/27 05:08:24;;;;;;;45.20;25.80;;;5.60;99.90;;;;;;5049588;28;20041;-61
2022/01/27 05:11:05;;;;;;;46.57;26.80;;;5.60;99.90;;;;;;5050266;28;20029;-59
2022/01/27 05:13:39;;;;;;;42.65;24.35;;;5.60;99.90;;;;;;5040742;28;20105;-60
2022/01/27 05:16:05;;;;;;;45.42;26.17;;;5.60;99.90;;;;;;5049770;28;20037;-60
2022/01/27 05:18:31;;;;;;;41.22;24.80;;;5.60;99.90;;;;;;5049477;28;20052;-61
2022/01/27 05:20:56;;;;;;;40.87;23.13;;;5.60;99.90;;;;;;5049701;28;20418;-61
2022/01/27 05:23:22;;;;;;;42.17;23.93;;;5.60;99.90;;;;;;5047901;28;20041;-60
2022/01/27 05:25:47;;;;;;;44.03;25.20;;;5.60;99.90;;;;;;5049560;28;20138;-60
2022/01/27 05:28:13;;;;;;;45.33;25.23;;;5.60;99.90;;;;;;5052968;28;20045;-59
2022/01/27 05:30:38;;;;;;;44.50;25.27;;;5.60;99.90;;;;;;5055857;28;20040;-61
2022/01/27 05:33:04;;;;;;;40.37;20.80;;;5.60;99.90;;;;;;5053749;28;20382;-61
2022/01/27 05:35:31;;;;;;;47.65;26.10;;;5.60;99.90;;;;;;5048509;28;20076;-59
2022/01/27 05:37:56;;;;;;;;;;;5.50;99.90;;;;;;5050286;28;20044;-59
2022/01/27 05:40:22;;;;;;;48.72;24.15;;;5.50;99.90;;;;;;5049113;28;20344;-58
2022/01/27 05:42:48;;;;;;;56.55;28.27;;;5.50;99.90;;;;;;5048785;28;20036;-56
2022/01/27 05:45:13;;;;;;;51.83;25.30;;;5.50;99.90;;;;;;5049195;28;20071;-59
2022/01/27 05:47:39;;;;;;;42.07;25.30;;;5.50;99.90;;;;;;5048486;28;20530;-58
2022/01/27 05:50:05;;;;;;;50.27;25.40;;;5.50;99.90;;;;;;5047257;28;20529;-59
2022/01/27 05:52:31;;;;;;;44.90;24.77;;;5.50;99.90;;;;;;5049389;28;20452;-61
2022/01/27 05:54:57;;;;;;;52.75;26.20;;;5.50;99.90;;;;;;5048219;28;20076;-61
2022/01/27 05:57:22;;;;;;;50.65;27.67;;;5.60;99.90;;;;;;5047508;28;20072;-60
2022/01/27 05:59:48;;;;;;;40.43;23.90;;;5.60;99.90;;;;;;5049016;28;20082;-61
2022/01/27 06:02:14;;;;;;;39.83;25.90;;;5.60;99.90;;;;;;5049106;28;20039;-59
2022/01/27 06:04:39;;;;;;;42.77;22.47;;;5.60;99.90;;;;;;5048228;28;20106;-60
2022/01/27 06:07:05;;;;;;;44.67;24.47;;;5.60;99.90;;;;;;5047367;28;20131;-61
2022/01/27 06:09:30;;;;;;;47.10;23.60;;;5.60;99.90;;;;;;5048853;28;20044;-60
2022/01/27 06:11:56;;;;;;;49.50;23.40;;;5.70;99.90;;;;;;5064675;28;20037;-60
2022/01/27 06:14:21;;;;;;;45.27;24.23;;;5.70;99.90;;;;;;5048065;28;20087;-61
2022/01/27 06:16:47;;;;;;;39.07;24.20;;;5.70;99.90;;;;;;5048404;28;20482;-61
2022/01/27 06:19:13;;;;;;;46.15;26.73;;;5.70;99.90;;;;;;5064078;28;20033;-61
2022/01/27 06:21:40;;;;;;;44.88;24.70;;;5.70;99.90;;;;;;5048839;28;20033;-59
2022/01/27 06:24:06;;;;;;;44.78;24.65;;;5.70;99.90;;;;;;5048105;28;20414;-60
2022/01/27 06:26:32;;;;;;;60.53;26.60;;;5.70;99.90;;;;;;5048138;28;20032;-60
2022/01/27 06:28:58;;;;;;;52.17;27.08;;;5.70;99.90;;;;;;5048453;28;20033;-62
2022/01/27 06:31:23;;;;;;;51.10;27.40;;;5.70;99.90;;;;;;5048588;28;20564;-58
2022/01/27 06:33:49;;;;;;;48.50;26.42;;;5.70;99.90;;;;;;5039407;28;20045;-61
2022/01/27 06:36:15;;;;;;;66.80;28.43;;;5.60;99.90;;;;;;5044302;28;20405;-59
2022/01/27 06:38:40;;;;;;;56.23;28.03;;;5.60;99.90;;;;;;5048741;28;20268;-61
2022/01/27 06:41:06;;;;;;;55.50;30.07;;;5.60;99.90;;;;;;5048270;28;20029;-61
2022/01/27 06:43:31;;;;;;;60.47;29.20;;;5.60;99.90;;;;;;5048937;28;20646;-58
2022/01/27 06:45:57;;;;;;;58.10;28.20;;;5.60;99.90;;;;;;5046661;28;20037;-60
2022/01/27 06:48:22;;;;;;;55.40;30.73;;;5.60;99.90;;;;;;5047186;28;20065;-61
2022/01/27 06:50:53;;;;;;;60.13;28.43;;;5.50;99.90;;;;;;5047036;28;20036;-60
2022/01/27 06:53:19;;;;;;;56.88;31.55;;;5.50;99.90;;;;;;5048182;28;20482;-60
2022/01/27 06:55:45;;;;;;;57.30;29.73;;;5.50;99.90;;;;;;5047762;28;20037;-61
2022/01/27 06:58:10;;;;;;;58.00;29.50;;;5.50;99.90;;;;;;5048369;28;20060;-59
2022/01/27 07:00:36;;;;;;;65.03;30.80;;;5.50;99.90;;;;;;5051072;28;20077;-58
2022/01/27 07:03:02;;;;;;;62.30;32.53;;;5.50;99.90;;;;;;5067538;28;20037;-59
2022/01/27 07:05:31;;;;;;;61.60;31.03;;;5.50;99.90;;;;;;5067820;28;20080;-60
2022/01/27 07:07:56;;;;;;;56.15;29.40;;;5.50;99.90;;;;;;5051107;28;20067;-60
2022/01/27 07:10:22;;;;;;;68.10;32.07;;;5.50;99.90;;;;;;5051989;28;20083;-60
2022/01/27 07:12:47;;;;;;;63.13;31.90;;;5.50;99.90;;;;;;5051998;28;20041;-59
2022/01/27 07:15:13;;;;;;;62.10;30.87;;;5.50;99.90;;;;;;5048144;28;20048;-60
2022/01/27 07:17:39;;;;;;;69.40;31.43;;;5.50;99.90;;;;;;5051809;28;20102;-58
2022/01/27 07:20:05;;;;;;;59.87;32.20;;;5.60;99.90;;;;;;5051663;28;20021;-61
2022/01/27 07:22:32;;;;;;;;;;;5.60;99.90;;;;;;5067548;28;20029;-60
2022/01/27 07:24:57;;;;;;;66.50;30.70;;;5.60;99.90;;;;;;5051373;28;19924;-61
2022/01/27 07:27:23;;;;;;;61.83;29.47;;;5.70;99.90;;;;;;5047435;28;20037;-60
2022/01/27 07:29:49;;;;;;;61.77;30.50;;;5.70;99.90;;;;;;5051788;28;20123;-60
2022/01/27 07:32:14;;;;;;;66.23;30.17;;;5.70;99.90;;;;;;5051688;28;20425;-60
2022/01/27 07:34:40;;;;;;;65.80;30.60;;;5.70;99.90;;;;;;5049052;28;20048;-57
2022/01/27 07:37:06;;;;;;;57.30;27.67;;;5.70;99.90;;;;;;5052173;28;20044;-61
2022/01/27 07:39:32;;;;;;;;;;;5.80;99.90;;;;;;5052232;28;20048;-60
2022/01/27 07:42:00;;;;;;;51.97;27.13;;;5.80;99.90;;;;;;5051869;28;19916;-60
2022/01/27 07:44:26;;;;;;;49.63;26.38;;;5.90;99.90;;;;;;5051813;28;20444;-60
2022/01/27 07:46:51;;;;;;;54.50;26.80;;;5.90;99.90;;;;;;5033070;28;20045;-60
2022/01/27 07:49:17;;;;;;;45.72;22.88;;;5.90;99.90;;;;;;5031858;28;20050;-58
2022/01/27 07:51:43;;;;;;;44.90;23.17;;;6.00;99.90;;;;;;5032407;28;20052;-61
2022/01/27 07:54:09;;;;;;;42.23;21.60;;;6.00;99.90;;;;;;5031707;28;20037;-61
2022/01/27 07:56:34;;;;;;;38.00;20.43;;;6.00;99.90;;;;;;5031652;28;20060;-59
2022/01/27 07:59:00;;;;;;;38.70;21.57;;;6.00;99.90;;;;;;5039109;28;20040;-59
2022/01/27 08:01:26;;;;;;;37.93;20.77;;;6.10;99.90;;;;;;5051447;28;20032;-59
2022/01/27 08:03:51;;;;;;;39.35;20.67;;;6.10;99.90;;;;;;5051623;28;20535;-59
2022/01/27 08:06:17;;;;;;;33.93;18.83;;;6.10;99.90;;;;;;5051306;28;20076;-60
2022/01/27 08:08:43;;;;;;;36.13;19.90;;;6.20;99.90;;;;;;5036666;28;20049;-61
2022/01/27 08:11:09;;;;;;;33.97;18.63;;;6.20;99.90;;;;;;5047161;28;20049;-60
2022/01/27 08:13:34;;;;;;;31.15;19.77;;;6.20;99.90;;;;;;5050816;28;20050;-61
2022/01/27 08:16:00;;;;;;;32.87;18.03;;;6.20;99.90;;;;;;5057672;28;20045;-59
2022/01/27 08:18:26;;;;;;;31.77;17.88;;;6.30;99.90;;;;;;5064015;28;20041;-61
2022/01/27 08:20:52;;;;;;;33.00;18.10;;;6.30;99.90;;;;;;5068610;28;20103;-60
2022/01/27 08:23:17;;;;;;;32.60;18.40;;;6.30;99.90;;;;;;5068834;28;20040;-61
2022/01/27 08:25:48;;;;;;;35.30;19.87;;;6.30;99.90;;;;;;5068442;28;20573;-60
2022/01/27 08:28:26;;;;;;;33.58;18.38;;;6.40;99.90;;;;;;5068801;28;20047;-61
2022/01/27 08:30:53;;;;;;;27.98;18.15;;;6.40;99.90;;;;;;5066879;28;20036;-61
2022/01/27 08:33:20;;;;;;;41.63;19.05;;;6.40;99.90;;;;;;5067567;28;20646;-62
2022/01/27 08:35:45;;;;;;;;;;;6.50;99.90;;;;;;5069229;28;20072;-62
2022/01/27 08:38:11;;;;;;;39.05;19.75;;;6.50;99.90;;;;;;5069308;28;19971;-61
2022/01/27 08:40:37;;;;;;;36.43;21.47;;;6.50;99.90;;;;;;5068208;28;20108;-61
2022/01/27 08:43:05;;;;;;;35.80;20.67;;;6.50;99.90;;;;;;5068986;28;20476;-62
2022/01/27 08:45:31;;;;;;;43.25;22.15;;;6.50;99.90;;;;;;5068935;28;20795;-60
2022/01/27 08:47:59;;;;;;;41.13;21.80;;;6.50;99.90;;;;;;5069224;28;20061;-61
2022/01/27 08:50:25;;;;;;;38.40;21.60;;;6.50;99.90;;;;;;5063761;28;20040;-61
2022/01/27 08:52:51;;;;;;;38.38;20.48;;;6.50;99.90;;;;;;5074086;28;20051;-60
2022/01/27 08:55:17;;;;;;;45.22;22.40;;;6.50;99.90;;;;;;5074711;28;20170;-61
2022/01/27 08:57:43;;;;;;;51.65;24.10;;;6.60;99.90;;;;;;5069369;28;20029;-61
2022/01/27 09:00:11;;;;;;;42.38;21.50;;;6.60;99.90;;;;;;5068555;28;20040;-61
2022/01/27 09:02:37;;;;;;;41.78;21.95;;;6.60;99.90;;;;;;5067974;28;20040;-63
2022/01/27 09:05:04;;;;;;;47.35;22.90;;;6.60;99.90;;;;;;5068335;28;20049;-62
2022/01/27 09:07:30;;;;;;;47.38;23.63;;;6.60;99.90;;;;;;5068549;28;20090;-61
2022/01/27 09:09:56;;;;;;;42.22;19.98;;;6.60;99.90;;;;;;5064395;28;20040;-62
2022/01/27 09:12:22;;;;;;;39.72;20.38;;;6.70;99.90;;;;;;5066974;28;20055;-62
2022/01/27 09:14:47;;;;;;;51.30;22.10;;;6.70;99.90;;;;;;5067696;28;20128;-61
2022/01/27 09:17:14;;;;;;;43.63;22.60;;;6.70;99.90;;;;;;5067911;28;20498;-61
2022/01/27 09:19:41;;;;;;;44.38;22.73;;;6.70;99.90;;;;;;5067493;28;20128;-60
2022/01/27 09:22:13;;;;;;;41.13;21.50;;;6.80;99.90;;;;;;5067858;28;20033;-61
2022/01/27 09:24:51;;;;;;;47.42;22.08;;;6.80;99.90;;;;;;5068215;28;20463;-61
2022/01/27 09:27:17;;;;;;;52.95;22.38;;;6.90;99.90;;;;;;5068152;28;20068;-61
2022/01/27 09:29:43;;;;;;;;;;;6.90;99.90;;;;;;5069015;28;20040;-61
2022/01/27 09:32:09;;;;;;;43.10;21.15;;;6.90;99.90;;;;;;5067510;28;20472;-61
2022/01/27 09:34:35;;;;;;;48.78;21.80;;;6.90;99.90;;;;;;5061660;28;20356;-61
2022/01/27 09:37:02;;;;;;;44.05;21.65;;;7.00;99.90;;;;;;5067624;28;20062;-60
2022/01/27 09:39:29;;;;;;;52.50;22.95;;;7.00;99.90;;;;;;5064975;28;20033;-60
2022/01/27 09:41:57;;;;;;;48.80;21.05;;;7.00;99.90;;;;;;5068135;28;20037;-58
2022/01/27 09:44:29;;;;;;;45.25;19.80;;;7.10;99.90;;;;;;5064033;28;20043;-59
2022/01/27 09:46:57;;;;;;;50.42;19.98;;;7.10;99.90;;;;;;5066431;28;20071;-59
2022/01/27 09:49:33;;;;;;;45.50;19.15;;;7.10;99.90;;;;;;5066693;28;20036;-59
2022/01/27 09:51:59;;;;;;;38.58;18.85;;;7.20;99.90;;;;;;5062065;28;20110;-60
2022/01/27 09:54:25;;;;;;;38.38;17.40;;;7.20;99.90;;;;;;5067709;28;20071;-59
2022/01/27 09:56:53;;;;;;;47.37;18.83;;;7.30;99.90;;;;;;5068083;28;20135;-58
2022/01/27 09:59:19;;;;;;;35.38;17.00;;;7.40;99.90;;;;;;5066299;28;20044;-61
2022/01/27 10:01:56;;;;;;;40.20;17.50;;;7.50;99.90;;;;;;5067724;28;20025;-61
2022/01/27 10:04:23;;;;;;;39.42;17.20;;;7.50;99.90;;;;;;5066252;28;20316;-61
2022/01/27 10:06:57;;;;;;;38.13;14.43;;;7.60;99.90;;;;;;5067123;28;20405;-61
2022/01/27 10:09:27;;;;;;;30.92;14.23;;;7.70;99.90;;;;;;5064910;28;20112;-61
2022/01/27 10:11:53;;;;;;;34.40;13.95;;;7.70;99.90;;;;;;5065637;28;20371;-59
2022/01/27 10:14:38;;;;;;;33.47;13.50;;;7.80;99.90;;;;;;5067086;28;20062;-61
2022/01/27 10:17:14;;;;;;;34.95;14.48;;;7.80;99.90;;;;;;5067558;28;20366;-59
2022/01/27 10:19:40;;;;;;;32.83;11.90;;;7.80;99.90;;;;;;5066223;28;20036;-61
2022/01/27 10:22:10;;;;;;;34.87;13.33;;;7.80;99.90;;;;;;5066908;28;20290;-61
2022/01/27 10:24:36;;;;;;;29.67;12.02;;;7.80;99.90;;;;;;5067605;28;20397;-61
2022/01/27 10:30:35;;;;;;;31.33;10.93;;;7.90;99.90;;;;;;5067866;28;20044;-61
2022/01/27 10:32:49;;;;;;;34.20;11.53;;;7.90;99.90;;;;;;5065193;28;20552;-61
2022/01/27 10:35:17;;;;;;;33.80;11.25;;;7.90;99.90;;;;;;5064742;28;20485;-62
2022/01/27 10:37:54;;;;;;;28.25;10.45;;;7.90;99.90;;;;;;5067722;28;20040;-60
2022/01/27 10:40:29;;;;;;;30.77;10.30;;;7.90;99.90;;;;;;5061059;28;20521;-62
2022/01/27 10:43:20;;;;;;;40.13;9.98;;;8.00;99.90;;;;;;5067339;28;20062;-62
2022/01/27 10:46:11;;;;;;;24.73;9.32;;;8.00;99.90;;;;;;5064904;28;20036;-62
2022/01/27 10:48:51;;;;;;;35.67;9.70;;;8.00;99.90;;;;;;5067756;28;20078;-60
2022/01/27 10:51:24;;;;;;;21.00;8.65;;;8.00;99.90;;;;;;5065794;28;20650;-61
2022/01/27 10:56:30;;;;;;;44.05;10.68;;;8.00;99.90;;;;;;5065283;28;20618;-60
2022/01/27 10:58:58;;;;;;;33.75;10.60;;;8.00;99.90;;;;;;5065911;28;20033;-62
2022/01/27 11:01:28;;;;;;;31.55;9.77;;;8.00;99.90;;;;;;5057857;28;20032;-62
2022/01/27 11:04:01;;;;;;;29.27;9.52;;;7.90;99.90;;;;;;5054209;28;20063;-61
2022/01/27 11:06:28;;;;;;;27.73;11.10;;;7.90;99.90;;;;;;5056979;28;20043;-61
2022/01/27 11:08:56;;;;;;;33.47;11.88;;;7.90;99.90;;;;;;5054526;28;20413;-62
2022/01/27 11:11:24;;;;;;;27.77;11.77;;;7.90;99.90;;;;;;5058478;28;20491;-60
2022/01/27 11:13:51;;;;;;;28.83;10.40;;;7.90;99.90;;;;;;5053064;28;20524;-60
2022/01/27 11:16:21;;;;;;;29.00;8.68;;;7.80;99.90;;;;;;5060891;28;20363;-61
2022/01/27 11:18:47;;;;;;;33.38;10.55;;;7.80;99.90;;;;;;5060789;28;20029;-62
2022/01/27 11:21:29;;;;;;;29.95;9.35;;;7.90;99.90;;;;;;5052404;28;20038;-61
2022/01/27 11:24:07;;;;;;;33.53;8.82;;;7.90;99.90;;;;;;5053070;28;20118;-62
2022/01/27 11:26:37;;;;;;;18.67;8.25;;;7.80;99.90;;;;;;5054893;28;20037;-59
2022/01/27 11:29:05;;;;;;;23.90;9.35;;;7.90;99.90;;;;;;5054800;28;20124;-62
2022/01/27 11:31:59;;;;;;;24.13;8.95;;;7.90;99.90;;;;;;5055407;28;20040;-60
2022/01/27 11:34:47;;;;;;;27.38;8.82;;;7.90;99.90;;;;;;5055270;28;20047;-61
2022/01/27 11:37:13;;;;;;;;;;;7.90;99.90;;;;;;5056488;28;20727;-62
2022/01/27 11:39:54;;;;;;;30.42;8.18;;;7.90;99.90;;;;;;5055009;28;19920;-61
2022/01/27 11:43:03;;;;;;;37.30;9.43;;;8.00;99.90;;;;;;5053331;28;20043;-61
2022/01/27 11:45:55;;;;;;;27.23;8.55;;;8.00;99.90;;;;;;5026589;28;20337;-61
2022/01/27 11:48:25;;;;;;;23.88;7.35;;;8.10;99.90;;;;;;5060858;28;20105;-61
2022/01/27 11:50:56;;;;;;;30.48;8.98;;;8.10;99.90;;;;;;5062254;28;20120;-61
2022/01/27 11:53:30;;;;;;;33.55;8.35;;;8.10;99.90;;;;;;5061652;28;20032;-61
2022/01/27 11:55:58;;;;;;;25.70;6.88;;;8.10;99.90;;;;;;5068206;28;20083;-62
2022/01/27 11:58:25;;;;;;;22.58;7.97;;;8.20;99.90;;;;;;5072133;28;20032;-60
2022/01/27 12:01:14;;;;;;;27.17;8.27;;;8.30;99.90;;;;;;5065552;28;20489;-61
2022/01/27 12:04:00;;;;;;;22.98;7.05;;;8.30;99.90;;;;;;5065156;28;20033;-62
2022/01/27 12:06:25;;;;;;;22.05;6.57;;;8.30;99.90;;;;;;5067776;28;20075;-60
2022/01/27 12:09:11;;;;;;;17.93;6.93;;;8.30;99.90;;;;;;5060888;28;20365;-61
2022/01/27 12:11:43;;;;;;;19.75;6.15;;;8.40;99.90;;;;;;5061489;28;20064;-60
2022/01/27 12:14:09;;;;;;;17.77;5.80;;;8.40;99.90;;;;;;5041786;28;20512;-62
2022/01/27 12:19:09;;;;;;;19.80;5.43;;;8.50;99.90;;;;;;5067007;28;20291;-62
2022/01/27 12:21:45;;;;;;;12.73;4.18;;;8.50;99.90;;;;;;5065910;28;20111;-62
2022/01/27 12:24:14;;;;;;;19.35;4.82;;;8.60;99.90;;;;;;5066585;28;20045;-62
2022/01/27 12:26:48;;;;;;;28.88;5.30;;;8.60;99.90;;;;;;5062663;28;20130;-62
2022/01/27 12:29:40;;;;;;;13.25;4.68;;;8.70;99.90;;;;;;5059744;28;21106;-61
2022/01/27 12:32:09;;;;;;;15.45;4.47;;;8.80;99.90;;;;;;5065218;28;20397;-62
2022/01/27 12:34:37;;;;;;;18.33;4.80;;;8.80;99.90;;;;;;5061819;28;20094;-62
2022/01/27 12:37:11;;;;;;;13.90;3.75;;;8.80;99.90;;;;;;5057582;28;20052;-62
2022/01/27 12:39:37;;;;;;;21.55;4.55;;;8.90;99.90;;;;;;5064057;28;20499;-62
2022/01/27 12:42:06;;;;;;;16.50;2.72;;;8.90;99.90;;;;;;5068041;28;20119;-60
2022/01/27 12:44:33;;;;;;;14.57;3.55;;;8.90;99.90;;;;;;5056736;28;20041;-62
2022/01/27 12:47:13;;;;;;;;;;;8.90;99.90;;;;;;5060707;28;20040;-62
2022/01/27 12:49:49;;;;;;;18.30;2.45;;;8.90;99.90;;;;;;5048702;28;19920;-62
2022/01/27 12:52:27;;;;;;;7.93;2.03;;;8.90;99.90;;;;;;5044294;28;20033;-62
2022/01/27 12:54:53;;;;;;;12.60;2.67;;;8.90;99.90;;;;;;5048575;28;20044;-61
2022/01/27 12:57:28;;;;;;;19.58;3.42;;;8.90;99.90;;;;;;5050180;28;20041;-61
2022/01/27 12:59:56;;;;;;;16.00;3.30;;;8.90;99.90;;;;;;5049594;28;20033;-61
2022/01/27 13:02:23;;;;;;;23.88;3.05;;;8.90;99.90;;;;;;5050023;28;20064;-59
2022/01/27 13:04:52;;;;;;;19.50;3.28;;;8.90;99.90;;;;;;5049487;28;20071;-60
2022/01/27 13:07:19;;;;;;;20.27;3.33;;;9.00;99.90;;;;;;5049842;28;20444;-60
2022/01/27 13:09:57;;;;;;;19.63;3.08;;;9.00;99.90;;;;;;5049879;28;20524;-62
2022/01/27 13:12:28;;;;;;;14.50;2.65;;;9.00;99.90;;;;;;5035127;28;20033;-60
2022/01/27 13:15:07;;;;;;;23.25;3.63;;;9.00;99.90;;;;;;5046006;28;20486;-60
2022/01/27 13:17:42;;;;;;;15.55;2.58;;;9.00;99.90;;;;;;5065952;28;20445;-61
2022/01/27 13:20:12;;;;;;;19.98;3.15;;;9.00;99.90;;;;;;5054665;28;20044;-61
2022/01/27 13:23:04;;;;;;;15.85;3.13;;;9.00;99.90;;;;;;5050050;28;20041;-59
2022/01/27 13:26:03;;;;;;;18.90;2.97;;;9.00;99.90;;;;;;5049395;28;20561;-61
2022/01/27 13:28:37;;;;;;;17.40;3.30;;;9.00;99.90;;;;;;4992238;28;20665;-61
2022/01/27 13:31:07;;;;;;;14.00;2.80;;;9.00;99.90;;;;;;5007384;28;20050;-61
2022/01/27 13:33:42;;;;;;;15.23;2.42;;;9.00;99.90;;;;;;5021318;28;20050;-61
2022/01/27 13:36:19;;;;;;;15.07;2.50;;;9.10;99.90;;;;;;5023114;28;20108;-61